Wincanton, United Kingdom
Current Conditions -  °F | °C
As of 9:50 AM on Tuesday 21 Oct 2014 (Local Time) from EGDY Reporting Station
Few Clouds Few Clouds  
Wind Chill: 54°   Ceiling: Unl
Heat Index: 54°   Visibility: 6mi
Dew Point: 41°   Wind: 30mph
Humidity: 62%   Direction: 290°WNW
Pressure: 29.74"   Gusts: 44mph
Location:  51.06°N, 2.41°W
Report Text: EGDY 210850Z 29026G38KT 9999 FEW012 12/05 Q1007 BLU TEMPO 6000 SHRA SCT022TCU WHT
Loading
Personal Weather Stations






























Interactive Weather Map
Tropical Storm Tracking
New forecast layout! Learn more

10-Day Weather Forecast

Advertisements
Track Severe Weather on mobile